createdAt,value
2023-10-08T00:01:16.202Z,16.10
2023-10-08T00:03:49.985Z,16.10
2023-10-08T00:06:21.865Z,16.10
2023-10-08T00:09:01.676Z,16.10
2023-10-08T00:11:31.448Z,16.00
2023-10-08T00:14:02.568Z,16.00
2023-10-08T00:16:32.389Z,16.00
2023-10-08T00:19:01.486Z,15.90
2023-10-08T00:21:34.483Z,15.90
2023-10-08T00:24:07.655Z,15.90
2023-10-08T00:26:41.454Z,15.90
2023-10-08T00:29:18.211Z,15.90
2023-10-08T00:31:47.361Z,15.90
2023-10-08T00:34:15.830Z,15.90
2023-10-08T00:36:47.053Z,15.90
2023-10-08T00:39:24.012Z,15.90
2023-10-08T00:42:00.300Z,15.80
2023-10-08T00:44:31.678Z,15.80
2023-10-08T00:47:02.365Z,15.80
2023-10-08T00:49:49.218Z,15.80
2023-10-08T00:52:31.747Z,15.70
2023-10-08T00:55:15.813Z,15.70
2023-10-08T00:57:49.022Z,15.70
2023-10-08T01:00:22.534Z,15.60
2023-10-08T01:02:56.659Z,15.60
2023-10-08T01:05:30.054Z,15.50
2023-10-08T01:08:00.088Z,15.50
2023-10-08T01:10:31.493Z,15.50
2023-10-08T01:13:08.674Z,15.40
2023-10-08T01:15:38.802Z,15.40
2023-10-08T01:18:16.939Z,15.40
2023-10-08T01:20:53.714Z,15.40
2023-10-08T01:23:28.387Z,15.40
2023-10-08T01:26:11.833Z,15.40
2023-10-08T01:28:41.301Z,15.40
2023-10-08T01:31:14.317Z,15.40
2023-10-08T01:33:51.547Z,15.40
2023-10-08T01:36:20.415Z,15.40
2023-10-08T01:38:50.811Z,15.40
2023-10-08T01:41:30.613Z,15.40
2023-10-08T01:44:00.000Z,15.40
2023-10-08T01:46:29.318Z,15.40
2023-10-08T01:49:05.305Z,15.30
2023-10-08T01:51:40.746Z,15.30
2023-10-08T01:54:12.965Z,15.30
2023-10-08T01:56:43.881Z,15.20
2023-10-08T01:59:13.125Z,15.20
2023-10-08T02:01:42.538Z,15.30
2023-10-08T02:04:13.736Z,15.30
2023-10-08T02:06:42.892Z,15.30
2023-10-08T02:09:15.018Z,15.30
2023-10-08T02:11:48.147Z,15.30
2023-10-08T02:14:16.991Z,15.30
2023-10-08T02:16:46.672Z,15.30
2023-10-08T02:19:19.752Z,15.20
2023-10-08T02:21:48.687Z,15.20
2023-10-08T02:24:19.044Z,15.20
2023-10-08T02:26:47.786Z,15.20
2023-10-08T02:29:16.488Z,15.20
2023-10-08T02:31:45.225Z,15.10
2023-10-08T02:34:14.966Z,15.10
2023-10-08T02:36:44.845Z,15.10
2023-10-08T02:39:18.923Z,15.10
2023-10-08T02:41:49.479Z,15.10
2023-10-08T02:44:18.972Z,15.10
2023-10-08T02:46:49.606Z,15.10
2023-10-08T02:49:21.651Z,15.10
2023-10-08T02:51:52.780Z,15.10
2023-10-08T02:54:24.541Z,15.10
2023-10-08T02:57:00.274Z,15.10
2023-10-08T02:59:40.172Z,15.00
2023-10-08T03:02:14.538Z,15.00
2023-10-08T03:04:46.464Z,15.00
2023-10-08T03:07:23.421Z,15.00
2023-10-08T03:10:04.418Z,15.00
2023-10-08T03:12:35.009Z,15.00
2023-10-08T03:15:13.850Z,14.90
2023-10-08T03:17:50.627Z,14.90
2023-10-08T03:20:40.173Z,14.80
2023-10-08T03:23:14.968Z,14.80
2023-10-08T03:25:44.159Z,14.80
2023-10-08T03:28:18.080Z,14.80
2023-10-08T03:30:52.752Z,14.80
2023-10-08T03:33:25.422Z,14.80
2023-10-08T03:35:57.001Z,14.70
2023-10-08T03:38:40.445Z,14.80
2023-10-08T03:41:10.111Z,14.80
2023-10-08T03:43:48.873Z,14.80
2023-10-08T03:46:18.047Z,14.70
2023-10-08T03:48:47.026Z,14.70
2023-10-08T03:51:16.202Z,14.70
2023-10-08T03:54:00.068Z,14.70
2023-10-08T03:56:31.700Z,14.70
2023-10-08T03:59:05.068Z,14.70
2023-10-08T04:01:35.454Z,14.70
2023-10-08T04:04:04.240Z,14.60
2023-10-08T04:06:49.816Z,14.60
2023-10-08T04:09:26.597Z,14.60
2023-10-08T04:11:59.908Z,14.70
2023-10-08T04:14:30.898Z,14.70
2023-10-08T04:17:00.533Z,14.60
2023-10-08T04:19:29.392Z,14.60
2023-10-08T04:21:58.754Z,14.60
2023-10-08T04:24:36.176Z,14.60
2023-10-08T04:27:07.296Z,14.60
2023-10-08T04:29:39.367Z,14.60
2023-10-08T04:32:13.833Z,14.60
2023-10-08T04:34:47.936Z,14.60
2023-10-08T04:37:21.563Z,14.60
2023-10-08T04:39:59.286Z,14.60
2023-10-08T04:42:28.118Z,14.50
2023-10-08T04:45:00.325Z,14.50
2023-10-08T04:47:35.751Z,14.50
2023-10-08T04:50:07.646Z,14.50
2023-10-08T04:52:47.238Z,14.50
2023-10-08T04:55:21.491Z,14.50
2023-10-08T04:57:53.879Z,14.50
2023-10-08T05:00:42.808Z,14.40
2023-10-08T05:03:16.313Z,14.40
2023-10-08T05:08:55.890Z,14.30
2023-10-08T05:11:38.575Z,14.40
2023-10-08T05:14:17.692Z,14.30
2023-10-08T05:16:46.042Z,14.30
2023-10-08T05:19:38.960Z,14.30
2023-10-08T05:22:19.928Z,14.30
2023-10-08T05:25:09.178Z,14.20
2023-10-08T05:27:56.723Z,14.20
2023-10-08T05:30:43.361Z,14.20
2023-10-08T05:33:25.459Z,14.20
2023-10-08T05:36:04.172Z,14.20
2023-10-08T05:38:52.616Z,14.20
2023-10-08T05:41:40.023Z,14.20
2023-10-08T05:44:25.805Z,14.20
2023-10-08T05:50:16.586Z,14.10
2023-10-08T05:52:52.335Z,14.10
2023-10-08T05:55:27.295Z,14.10
2023-10-08T05:58:14.273Z,14.10
2023-10-08T06:01:06.784Z,14.10
2023-10-08T06:03:36.681Z,14.00
2023-10-08T06:06:37.242Z,14.00
2023-10-08T06:09:22.619Z,14.00
2023-10-08T06:12:13.957Z,14.00
2023-10-08T06:15:08.461Z,14.00
2023-10-08T06:17:58.990Z,14.00
2023-10-08T06:20:28.828Z,14.00
2023-10-08T06:23:04.980Z,14.00
2023-10-08T06:25:33.761Z,14.00
2023-10-08T06:28:04.440Z,14.10
2023-10-08T06:30:36.485Z,14.10
2023-10-08T06:33:06.438Z,14.10
2023-10-08T06:35:35.849Z,14.10
2023-10-08T06:38:11.031Z,14.20
2023-10-08T06:40:45.946Z,14.20
2023-10-08T06:43:16.040Z,14.20
2023-10-08T06:45:45.562Z,14.20
2023-10-08T06:48:21.932Z,14.30
2023-10-08T06:50:51.807Z,14.30
2023-10-08T06:53:23.184Z,14.30
2023-10-08T06:55:57.653Z,14.40
2023-10-08T06:58:26.533Z,14.40
2023-10-08T07:00:56.974Z,14.50
2023-10-08T07:03:26.183Z,14.50
2023-10-08T07:06:01.430Z,14.60
2023-10-08T07:08:33.152Z,14.60
2023-10-08T07:11:08.316Z,14.60
2023-10-08T07:13:38.465Z,14.60
2023-10-08T07:16:09.375Z,14.60
2023-10-08T07:18:38.152Z,14.60
2023-10-08T07:21:13.210Z,14.70
2023-10-08T07:23:57.842Z,14.70
2023-10-08T07:26:27.519Z,14.80
2023-10-08T07:28:56.443Z,14.80
2023-10-08T07:31:30.381Z,14.90
2023-10-08T07:34:16.746Z,14.90
2023-10-08T07:36:46.163Z,15.00
2023-10-08T07:39:26.882Z,15.00
2023-10-08T07:41:56.713Z,15.10
2023-10-08T07:44:25.862Z,15.10
2023-10-08T07:46:56.160Z,15.20
2023-10-08T07:49:26.523Z,15.30
2023-10-08T07:51:56.465Z,15.30
2023-10-08T07:54:28.901Z,15.30
2023-10-08T07:57:01.545Z,15.40
2023-10-08T07:59:29.867Z,15.50
2023-10-08T08:01:58.600Z,15.50
2023-10-08T08:04:34.482Z,15.60
2023-10-08T08:07:05.944Z,15.70
2023-10-08T08:09:39.512Z,15.80
2023-10-08T08:12:12.600Z,15.80
2023-10-08T08:14:43.033Z,15.90
2023-10-08T08:17:15.910Z,16.00
2023-10-08T08:19:45.743Z,16.00
2023-10-08T08:22:16.945Z,16.10
2023-10-08T08:24:48.363Z,16.10
2023-10-08T08:27:26.894Z,16.20
2023-10-08T08:29:57.395Z,16.20
2023-10-08T08:32:25.829Z,16.30
2023-10-08T08:34:54.717Z,16.30
2023-10-08T08:37:23.792Z,16.40
2023-10-08T08:39:55.961Z,16.50
2023-10-08T08:42:25.421Z,16.60
2023-10-08T08:44:57.783Z,16.60
2023-10-08T08:47:29.739Z,16.70
2023-10-08T08:50:09.222Z,16.80
2023-10-08T08:52:38.205Z,16.80
2023-10-08T08:55:16.334Z,16.90
2023-10-08T08:57:48.521Z,17.00
2023-10-08T09:00:19.061Z,17.20
2023-10-08T09:02:49.945Z,17.20
2023-10-08T09:05:27.359Z,17.30
2023-10-08T09:08:04.276Z,17.40
2023-10-08T09:10:38.895Z,17.50
2023-10-08T09:13:10.680Z,17.60
2023-10-08T09:15:39.876Z,17.70
2023-10-08T09:18:10.492Z,17.80
2023-10-08T09:20:44.612Z,18.00
2023-10-08T09:23:16.335Z,18.10
2023-10-08T09:25:51.463Z,18.20
2023-10-08T09:28:20.549Z,18.30
2023-10-08T09:30:49.917Z,18.40
2023-10-08T09:33:19.082Z,18.40
2023-10-08T09:35:48.860Z,18.40
2023-10-08T09:38:24.381Z,18.40
2023-10-08T09:40:55.652Z,18.40
2023-10-08T09:43:25.682Z,18.50
2023-10-08T09:46:02.772Z,18.70
2023-10-08T09:48:33.532Z,19.00
2023-10-08T09:51:07.772Z,19.20
2023-10-08T09:53:45.825Z,19.20
2023-10-08T09:56:19.470Z,19.30
2023-10-08T09:58:50.364Z,19.40
2023-10-08T10:01:23.822Z,19.40
2023-10-08T10:03:53.109Z,19.60
2023-10-08T10:06:23.722Z,19.80
2023-10-08T10:08:52.297Z,19.90
2023-10-08T10:11:21.972Z,20.00
2023-10-08T10:13:54.105Z,20.00
2023-10-08T10:16:24.841Z,20.20
2023-10-08T10:18:58.259Z,20.40
2023-10-08T10:21:35.625Z,20.80
2023-10-08T10:24:07.213Z,21.10
2023-10-08T10:26:41.925Z,21.40
2023-10-08T10:29:30.840Z,21.60
2023-10-08T10:32:00.392Z,21.60
2023-10-08T10:34:30.003Z,21.50
2023-10-08T10:37:04.174Z,21.50
2023-10-08T10:39:35.213Z,21.70
2023-10-08T10:42:07.759Z,22.00
2023-10-08T10:44:38.214Z,22.30
2023-10-08T10:47:28.675Z,22.50
2023-10-08T10:50:17.805Z,22.70
2023-10-08T10:52:53.747Z,22.90
2023-10-08T10:55:24.596Z,23.30
2023-10-08T10:57:58.335Z,23.40
2023-10-08T11:00:45.747Z,23.40
2023-10-08T11:03:24.880Z,23.50
2023-10-08T11:06:01.136Z,23.60
2023-10-08T11:08:36.705Z,23.70
2023-10-08T11:11:11.376Z,23.90
2023-10-08T11:13:43.056Z,24.00
2023-10-08T11:16:15.005Z,24.10
2023-10-08T11:18:51.881Z,24.30
2023-10-08T11:21:25.405Z,24.40
2023-10-08T11:23:57.246Z,24.50
2023-10-08T11:26:34.329Z,24.50
2023-10-08T11:29:06.423Z,24.70
2023-10-08T11:31:36.586Z,24.90
2023-10-08T11:34:10.533Z,25.10
2023-10-08T11:36:50.969Z,25.20
2023-10-08T11:39:31.682Z,25.10
2023-10-08T11:42:07.841Z,25.10
2023-10-08T11:44:38.718Z,25.00
2023-10-08T11:47:15.577Z,25.00
2023-10-08T11:49:49.119Z,24.90
2023-10-08T11:52:22.645Z,25.00
2023-10-08T11:54:54.390Z,25.00
2023-10-08T11:57:24.352Z,25.00
2023-10-08T11:59:56.346Z,25.00
2023-10-08T12:02:25.821Z,25.10
2023-10-08T12:04:58.852Z,25.20
2023-10-08T12:07:29.267Z,25.20
2023-10-08T12:09:58.189Z,25.10
2023-10-08T12:12:29.311Z,25.10
2023-10-08T12:15:01.258Z,25.20
2023-10-08T12:17:39.366Z,25.30
2023-10-08T12:20:24.839Z,25.50
2023-10-08T12:22:53.825Z,25.70
2023-10-08T12:25:23.966Z,25.90
2023-10-08T12:27:52.369Z,25.90
2023-10-08T12:30:32.440Z,25.90
2023-10-08T12:33:02.444Z,25.70
2023-10-08T12:35:31.808Z,25.70
2023-10-08T12:38:00.153Z,25.70
2023-10-08T12:40:43.394Z,25.80
2023-10-08T12:43:12.338Z,25.90
2023-10-08T12:45:42.772Z,26.10
2023-10-08T12:48:11.817Z,26.00
2023-10-08T12:50:44.792Z,26.10
2023-10-08T12:53:13.778Z,26.00
2023-10-08T12:55:42.435Z,26.00
2023-10-08T12:58:12.035Z,26.10
2023-10-08T13:00:43.151Z,26.20
2023-10-08T13:03:17.190Z,26.20
2023-10-08T13:05:46.677Z,26.40
2023-10-08T13:08:14.978Z,26.50
2023-10-08T13:10:45.623Z,26.50
2023-10-08T13:13:14.490Z,26.60
2023-10-08T13:15:44.773Z,26.60
2023-10-08T13:18:13.449Z,26.60
2023-10-08T13:20:46.234Z,26.40
2023-10-08T13:23:15.246Z,26.40
2023-10-08T13:25:44.065Z,26.50
2023-10-08T13:28:13.215Z,26.60
2023-10-08T13:30:41.757Z,26.60
2023-10-08T13:33:11.946Z,26.50
2023-10-08T13:35:40.784Z,26.60
2023-10-08T13:38:15.121Z,26.60
2023-10-08T13:41:03.679Z,26.70
2023-10-08T13:43:35.896Z,26.70
2023-10-08T13:46:08.625Z,26.80
2023-10-08T13:48:39.163Z,26.40
2023-10-08T13:51:15.064Z,26.10
2023-10-08T13:53:46.716Z,26.10
2023-10-08T13:56:16.103Z,26.10
2023-10-08T13:58:47.580Z,26.20
2023-10-08T14:01:22.715Z,26.10
2023-10-08T14:03:55.277Z,26.10
2023-10-08T14:06:24.263Z,26.00
2023-10-08T14:08:53.960Z,25.70
2023-10-08T14:11:24.941Z,25.60
2023-10-08T14:13:54.210Z,25.40
2023-10-08T14:16:24.793Z,25.20
2023-10-08T14:18:56.122Z,25.20
2023-10-08T14:21:25.681Z,25.10
2023-10-08T14:23:55.139Z,25.00
2023-10-08T14:26:24.501Z,25.00
2023-10-08T14:28:58.711Z,24.90
2023-10-08T14:31:28.274Z,24.90
2023-10-08T14:34:07.083Z,24.90
2023-10-08T14:36:54.104Z,24.80
2023-10-08T14:39:40.230Z,24.80
2023-10-08T14:42:26.254Z,24.60
2023-10-08T14:44:55.295Z,24.50
2023-10-08T14:47:23.940Z,24.50
2023-10-08T14:49:53.917Z,24.50
2023-10-08T14:52:22.628Z,24.40
2023-10-08T14:54:53.027Z,24.20
2023-10-08T14:57:21.714Z,24.20
2023-10-08T14:59:50.091Z,24.10
2023-10-08T15:02:18.423Z,24.00
2023-10-08T15:04:46.979Z,24.00
2023-10-08T15:07:19.509Z,23.90
2023-10-08T15:09:51.630Z,24.00
2023-10-08T15:12:23.272Z,23.90
2023-10-08T15:14:51.813Z,24.00
2023-10-08T15:17:20.775Z,24.00
2023-10-08T15:19:49.539Z,24.00
2023-10-08T15:22:20.252Z,23.80
2023-10-08T15:24:59.524Z,23.70
2023-10-08T15:27:31.610Z,23.60
2023-10-08T15:30:00.511Z,23.50
2023-10-08T15:32:28.897Z,23.40
2023-10-08T15:34:57.174Z,23.40
2023-10-08T15:37:27.880Z,23.30
2023-10-08T15:39:58.521Z,23.30
2023-10-08T15:42:27.254Z,23.20
2023-10-08T15:44:55.703Z,23.30
2023-10-08T15:47:24.123Z,23.30
2023-10-08T15:49:52.826Z,23.20
2023-10-08T15:52:21.565Z,23.20
2023-10-08T15:54:51.692Z,23.10
2023-10-08T15:57:20.463Z,23.00
2023-10-08T15:59:48.765Z,23.00
2023-10-08T16:02:19.469Z,23.00
2023-10-08T16:04:47.933Z,23.00
2023-10-08T16:07:16.539Z,23.00
2023-10-08T16:09:45.069Z,23.00
2023-10-08T16:12:14.882Z,23.00
2023-10-08T16:14:43.374Z,23.00
2023-10-08T16:17:16.717Z,22.90
2023-10-08T16:19:45.791Z,22.90
2023-10-08T16:22:14.665Z,22.90
2023-10-08T16:24:43.285Z,22.80
2023-10-08T16:27:11.613Z,22.80
2023-10-08T16:29:43.023Z,22.70
2023-10-08T16:32:11.600Z,22.70
2023-10-08T16:34:40.084Z,22.60
2023-10-08T16:37:08.589Z,22.50
2023-10-08T16:39:39.127Z,22.50
2023-10-08T16:42:07.697Z,22.40
2023-10-08T16:44:36.196Z,22.30
2023-10-08T16:47:06.485Z,22.20
2023-10-08T16:49:34.783Z,22.10
2023-10-08T16:52:05.431Z,22.00
2023-10-08T16:54:33.808Z,22.00
2023-10-08T16:57:02.195Z,21.90
2023-10-08T16:59:30.955Z,21.80
2023-10-08T17:01:59.625Z,21.70
2023-10-08T17:04:29.535Z,21.60
2023-10-08T17:06:58.934Z,21.60
2023-10-08T17:09:28.333Z,21.50
2023-10-08T17:11:57.127Z,21.40
2023-10-08T17:14:25.610Z,21.30
2023-10-08T17:16:54.270Z,21.20
2023-10-08T17:19:25.337Z,21.10
2023-10-08T17:21:56.034Z,21.00
2023-10-08T17:24:24.636Z,20.90
2023-10-08T17:27:07.892Z,20.90
2023-10-08T17:29:42.948Z,20.80
2023-10-08T17:32:11.786Z,20.70
2023-10-08T17:34:40.369Z,20.60
2023-10-08T17:37:11.671Z,20.50
2023-10-08T17:39:40.217Z,20.40
2023-10-08T17:42:11.080Z,20.30
2023-10-08T17:44:39.839Z,20.10
2023-10-08T17:47:11.134Z,20.00
2023-10-08T17:49:40.071Z,20.00
2023-10-08T17:52:14.410Z,19.90
2023-10-08T17:54:44.209Z,19.80
2023-10-08T17:57:16.553Z,19.80
2023-10-08T17:59:45.609Z,19.70
2023-10-08T18:02:14.541Z,19.70
2023-10-08T18:04:43.136Z,19.60
2023-10-08T18:07:13.365Z,19.50
2023-10-08T18:09:43.918Z,19.50
2023-10-08T18:12:12.949Z,19.40
2023-10-08T18:14:41.472Z,19.40
2023-10-08T18:17:10.221Z,19.30
2023-10-08T18:19:42.699Z,19.30
2023-10-08T18:22:13.551Z,19.30
2023-10-08T18:24:41.997Z,19.20
2023-10-08T18:27:11.123Z,19.20
2023-10-08T18:29:39.968Z,19.10
2023-10-08T18:32:08.756Z,19.10
2023-10-08T18:34:36.975Z,19.10
2023-10-08T18:37:06.273Z,19.00
2023-10-08T18:39:36.925Z,19.00
2023-10-08T18:42:06.582Z,19.00
2023-10-08T18:44:35.205Z,18.90
2023-10-08T18:47:03.647Z,18.90
2023-10-08T18:49:33.074Z,18.90
2023-10-08T18:52:01.909Z,18.80
2023-10-08T18:54:30.588Z,18.80
2023-10-08T18:57:05.434Z,18.80
2023-10-08T18:59:35.071Z,18.80
2023-10-08T19:02:06.953Z,18.80
2023-10-08T19:04:35.459Z,18.80
2023-10-08T19:07:05.187Z,18.70
2023-10-08T19:09:33.731Z,18.70
2023-10-08T19:12:07.672Z,18.70
2023-10-08T19:14:36.094Z,18.70
2023-10-08T19:17:04.508Z,18.70
2023-10-08T19:19:34.665Z,18.60
2023-10-08T19:22:03.646Z,18.60
2023-10-08T19:24:33.875Z,18.60
2023-10-08T19:27:05.233Z,18.60
2023-10-08T19:29:36.382Z,18.60
2023-10-08T19:32:06.099Z,18.50
2023-10-08T19:34:34.470Z,18.50
2023-10-08T19:37:05.865Z,18.50
2023-10-08T19:39:34.610Z,18.40
2023-10-08T19:42:04.721Z,18.40
2023-10-08T19:44:34.914Z,18.40
2023-10-08T19:47:03.755Z,18.40
2023-10-08T19:49:32.540Z,18.30
2023-10-08T19:52:01.204Z,18.30
2023-10-08T19:54:31.101Z,18.30
2023-10-08T19:57:01.173Z,18.30
2023-10-08T19:59:32.514Z,18.30
2023-10-08T20:02:01.347Z,18.20
2023-10-08T20:04:29.788Z,18.20
2023-10-08T20:06:58.561Z,18.20
2023-10-08T20:09:28.452Z,18.20
2023-10-08T20:11:58.130Z,18.20
2023-10-08T20:14:27.005Z,18.20
2023-10-08T20:16:57.555Z,18.20
2023-10-08T20:19:31.439Z,18.20
2023-10-08T20:21:59.658Z,18.20
2023-10-08T20:24:28.599Z,18.20
2023-10-08T20:26:58.743Z,18.10
2023-10-08T20:29:30.185Z,18.10
2023-10-08T20:32:01.305Z,18.10
2023-10-08T20:34:29.639Z,18.00
2023-10-08T20:36:58.963Z,18.00
2023-10-08T20:39:31.014Z,18.00
2023-10-08T20:41:59.453Z,17.90
2023-10-08T20:44:35.538Z,17.90
2023-10-08T20:47:06.465Z,17.80
2023-10-08T20:49:35.932Z,17.70
2023-10-08T20:52:04.316Z,17.70
2023-10-08T20:54:34.377Z,17.70
2023-10-08T20:57:04.445Z,17.60
2023-10-08T20:59:32.880Z,17.60
2023-10-08T21:02:02.154Z,17.60
2023-10-08T21:04:33.016Z,17.60
2023-10-08T21:07:01.416Z,17.60
2023-10-08T21:09:30.078Z,17.60
2023-10-08T21:11:58.845Z,17.60
2023-10-08T21:14:27.676Z,17.60
2023-10-08T21:16:56.709Z,17.60
2023-10-08T21:19:25.528Z,17.60
2023-10-08T21:21:56.441Z,17.50
2023-10-08T21:24:25.179Z,17.50
2023-10-08T21:26:55.137Z,17.50
2023-10-08T21:29:23.827Z,17.50
2023-10-08T21:31:52.537Z,17.50
2023-10-08T21:34:21.541Z,17.40
2023-10-08T21:36:50.081Z,17.50
2023-10-08T21:39:20.236Z,17.40
2023-10-08T21:41:49.497Z,17.40
2023-10-08T21:44:19.057Z,17.40
2023-10-08T21:46:47.833Z,17.40
2023-10-08T21:49:16.936Z,17.30
2023-10-08T21:51:45.500Z,17.30
2023-10-08T21:54:15.602Z,17.30
2023-10-08T21:56:45.693Z,17.30
2023-10-08T21:59:15.513Z,17.30
2023-10-08T22:01:44.420Z,17.40
2023-10-08T22:04:14.414Z,17.30
2023-10-08T22:06:44.973Z,17.30
2023-10-08T22:09:16.528Z,17.30
2023-10-08T22:11:50.693Z,17.30
2023-10-08T22:14:20.236Z,17.30
2023-10-08T22:16:48.832Z,17.30
2023-10-08T22:19:17.997Z,17.20
2023-10-08T22:21:47.873Z,17.20
2023-10-08T22:24:19.897Z,17.10
2023-10-08T22:26:51.218Z,17.10
2023-10-08T22:29:20.015Z,17.20
2023-10-08T22:31:50.654Z,17.10
2023-10-08T22:34:25.925Z,17.10
2023-10-08T22:37:02.592Z,17.10
2023-10-08T22:39:31.065Z,17.10
2023-10-08T22:42:03.238Z,17.00
2023-10-08T22:44:33.422Z,17.00
2023-10-08T22:47:11.646Z,17.00
2023-10-08T22:49:40.158Z,17.00
2023-10-08T22:52:10.539Z,17.00
2023-10-08T22:54:39.972Z,17.00
2023-10-08T22:57:11.090Z,17.00
2023-10-08T22:59:41.408Z,17.00
2023-10-08T23:02:12.282Z,17.00
2023-10-08T23:04:42.075Z,17.00
2023-10-08T23:07:11.793Z,17.00
2023-10-08T23:09:40.987Z,17.00
2023-10-08T23:12:11.002Z,16.90
2023-10-08T23:14:39.700Z,17.00
2023-10-08T23:17:08.917Z,16.90
2023-10-08T23:19:39.741Z,16.90
2023-10-08T23:22:08.159Z,16.90
2023-10-08T23:24:36.705Z,16.90
2023-10-08T23:27:05.072Z,16.90
2023-10-08T23:29:35.170Z,16.90
2023-10-08T23:32:03.853Z,17.00
2023-10-08T23:34:34.007Z,17.00
2023-10-08T23:37:11.406Z,17.00
2023-10-08T23:39:40.058Z,17.00
2023-10-08T23:45:15.284Z,17.00
2023-10-08T23:47:47.762Z,17.00
2023-10-08T23:50:30.820Z,17.00
2023-10-08T23:53:02.499Z,17.00
2023-10-08T23:55:31.832Z,17.00
2023-10-08T23:58:09.900Z,17.00
